Time;durP1;ratioP1;P1;durP2;ratioP2;P2;SDS_P1;SDS_P2;PMS_P1;PMS_P2;Temp;Humidity;BMP_temperature;BMP_pressure;BME280_temperature;BME280_humidity;BME280_pressure;Samples;Min_cycle;Max_cycle;Signal;HPM_P1;HPM_P2
2022/12/10 00:14:49;;;;;;;63.22;26.42;;;;;;;1.40;72.95;99152.38;30613759;28;96631;-72
2022/12/10 00:29:49;;;;;;;59.35;24.90;;;;;;;1.30;73.80;99160.22;30613360;28;96719;-71
2022/12/10 00:44:50;;;;;;;55.72;21.75;;;;;;;1.26;73.90;99148.34;30612216;28;96891;-72
2022/12/10 00:59:50;;;;;;;64.97;25.20;;;;;;;1.26;74.04;99149.19;30611284;28;98025;-72
2022/12/10 01:14:51;;;;;;;59.70;23.20;;;;;;;1.22;74.29;99158.28;30630165;28;97390;-72
2022/12/10 01:29:51;;;;;;;64.40;24.92;;;;;;;1.20;74.51;99168.06;30630264;28;97100;-71
2022/12/10 01:45:00;;;;;;;64.55;23.30;;;;;;;1.27;74.93;99166.59;30628878;28;96730;-69
2022/12/10 02:00:06;;;;;;;53.00;23.58;;;;;;;1.32;74.40;99159.13;30626830;28;97409;-71
2022/12/10 02:15:08;;;;;;;60.90;22.95;;;;;;;1.30;74.73;99155.81;30622797;28;98318;-71
2022/12/10 02:30:09;;;;;;;58.65;21.73;;;;;;;1.26;74.70;99158.81;30625434;28;97479;-68
2022/12/10 02:45:10;;;;;;;56.10;21.40;;;;;;;1.22;75.23;99176.66;30622987;28;96600;-68
2022/12/10 03:00:22;;;;;;;56.83;22.83;;;;;;;1.20;74.80;99177.75;30621528;28;96886;-67
2022/12/10 03:15:25;;;;;;;55.95;21.80;;;;;;;1.12;74.83;99181.88;30618677;28;96993;-69
2022/12/10 03:30:26;;;;;;;57.15;20.00;;;;;;;1.10;75.66;99196.09;30618697;28;97250;-68
2022/12/10 03:45:27;;;;;;;56.00;22.05;;;;;;;1.03;75.59;99189.72;30616661;28;96665;-68
2022/12/10 04:00:27;;;;;;;55.53;19.77;;;;;;;1.10;75.43;99190.84;30615417;28;96659;-70
2022/12/10 04:30:46;;;;;;;49.28;19.52;;;;;;;1.14;75.21;99221.09;30612108;28;97634;-68
2022/12/10 04:45:47;;;;;;;40.67;17.88;;;;;;;1.04;75.40;99217.59;30609336;28;96620;-69
2022/12/10 05:00:47;;;;;;;36.47;17.27;;;;;;;0.94;75.69;99231.50;30610193;28;96648;-70
2022/12/10 05:15:48;;;;;;;38.10;18.80;;;;;;;0.87;75.39;99238.25;30607261;28;96695;-72
2022/12/10 05:30:48;;;;;;;39.83;19.00;;;;;;;0.88;75.43;99245.16;30607560;28;97330;-70
2022/12/10 05:45:48;;;;;;;46.13;18.55;;;;;;;0.93;75.72;99258.72;30606290;28;96844;-71
2022/12/10 06:00:49;;;;;;;38.33;16.50;;;;;;;1.04;75.28;99238.59;30827036;28;96764;-68
2022/12/10 06:15:49;;;;;;;40.08;18.08;;;;;;;0.97;75.13;99243.53;30866444;28;97317;-67
2022/12/10 06:30:49;;;;;;;35.90;16.02;;;;;;;0.84;75.38;99254.25;30864760;28;96782;-66
2022/12/10 06:45:50;;;;;;;37.30;16.42;;;;;;;0.71;75.41;99248.38;30862862;28;96675;-70
2022/12/10 07:00:50;;;;;;;31.25;16.35;;;;;;;0.56;75.34;99269.69;30860167;28;97210;-69
2022/12/10 07:15:51;;;;;;;34.38;16.55;;;;;;;0.55;75.65;99281.13;30858914;28;98077;-71
2022/12/10 07:30:51;;;;;;;41.55;18.58;;;;;;;0.53;75.91;99283.03;30857700;28;97314;-70
2022/12/10 07:45:51;;;;;;;37.42;18.42;;;;;;;0.54;75.59;99276.03;30856579;28;96645;-70
2022/12/10 08:00:52;;;;;;;41.22;19.60;;;;;;;0.64;75.87;99310.97;30855689;28;97296;-70
2022/12/10 08:15:54;;;;;;;42.83;18.20;;;;;;;0.65;75.68;99307.41;30853566;28;97188;-71
2022/12/10 08:30:54;;;;;;;45.58;18.40;;;;;;;0.77;76.00;99316.03;30852998;28;96865;-70
2022/12/10 08:45:58;;;;;;;42.45;18.65;;;;;;;0.73;75.83;99325.13;30852178;28;96611;-68
2022/12/10 09:01:01;;;;;;;34.33;17.07;;;;;;;0.86;76.15;99323.09;30851132;28;96547;-67
2022/12/10 09:16:01;;;;;;;44.85;20.92;;;;;;;0.97;75.90;99328.31;30848591;28;96856;-66
2022/12/10 09:31:03;;;;;;;42.97;19.60;;;;;;;1.12;76.02;99322.69;30862868;28;96697;-66
2022/12/10 09:46:07;;;;;;;41.55;19.25;;;;;;;1.33;75.57;99325.28;30866533;28;96704;-67
2022/12/10 10:01:14;;;;;;;46.65;19.15;;;;;;;1.42;75.42;99306.13;30866252;28;96783;-67
2022/12/10 10:16:22;;;;;;;39.20;18.83;;;;;;;1.56;75.31;99290.94;30838653;28;97522;-64
2022/12/10 10:31:26;;;;;;;34.58;17.05;;;;;;;1.65;75.34;99272.63;30734868;28;97072;-77
2022/12/10 10:46:27;;;;;;;36.97;17.27;;;;;;;1.70;74.72;99266.94;30731345;28;96718;-77
2022/12/10 11:01:50;;;;;;;33.08;15.30;;;;;;;1.62;75.04;99253.66;30723812;28;96688;-73
2022/12/10 11:17:00;;;;;;;38.90;18.52;;;;;;;1.51;74.49;99273.81;30635478;28;96747;-69
2022/12/10 11:32:12;;;;;;;34.30;17.33;;;;;;;1.42;74.38;99289.53;30736625;28;96752;-79
2022/12/10 11:47:30;;;;;;;33.17;16.42;;;;;;;1.43;74.63;99292.03;30693235;28;96809;-70
2022/12/10 12:02:54;;;;;;;39.60;18.10;;;;;;;1.42;74.05;99294.78;30640838;28;96776;-72
2022/12/10 12:18:12;;;;;;;29.87;16.03;;;;;;;1.37;74.55;99291.72;30701722;28;97099;-63
2022/12/10 12:33:26;;;;;;;35.42;18.08;;;;;;;1.33;74.44;99283.31;30697363;28;97913;-63
2022/12/10 12:48:38;;;;;;;38.15;17.83;;;;;;;1.20;74.32;99280.88;30672109;28;96939;-71
2022/12/10 13:03:41;;;;;;;40.10;20.30;;;;;;;1.25;74.42;99268.22;30672396;28;97973;-70
2022/12/10 13:18:42;;;;;;;38.78;19.60;;;;;;;1.45;74.63;99270.88;30660452;28;96829;-67
2022/12/10 13:34:00;;;;;;;41.55;21.30;;;;;;;1.46;74.39;99296.19;30720566;28;98234;-71
2022/12/10 13:49:03;;;;;;;35.10;17.70;;;;;;;1.40;74.73;99294.09;30624158;28;97273;-64
2022/12/10 14:04:19;;;;;;;43.53;20.10;;;;;;;1.35;74.06;99289.22;30618835;28;97312;-70
2022/12/10 14:19:24;;;;;;;40.28;19.08;;;;;;;1.23;74.04;99306.88;30614092;28;96963;-67
2022/12/10 14:34:26;;;;;;;;;;;;;;;1.21;73.80;99321.91;30622822;28;96805;-69
2022/12/10 14:49:27;;;;;;;33.33;17.10;;;;;;;1.19;74.43;99336.97;30622511;28;96930;-65
2022/12/10 15:04:43;;;;;;;33.80;17.80;;;;;;;1.10;73.71;99349.06;30619517;28;96692;-64
2022/12/10 15:19:50;;;;;;;40.13;19.92;;;;;;;1.06;74.42;99342.41;30616075;28;97374;-70
2022/12/10 15:34:57;;;;;;;46.03;20.15;;;;;;;0.95;74.10;99353.81;30610669;28;98851;-66
2022/12/10 15:49:58;;;;;;;41.20;22.05;;;;;;;0.90;74.04;99361.22;30613906;28;97263;-65
2022/12/10 16:04:58;;;;;;;40.45;19.92;;;;;;;0.94;74.74;99357.38;30613022;28;96679;-65
2022/12/10 16:20:05;;;;;;;38.60;18.58;;;;;;;0.97;74.44;99354.53;30621967;28;96995;-60
2022/12/10 16:35:06;;;;;;;44.25;19.40;;;;;;;0.96;74.32;99342.38;30720853;28;97148;-65
2022/12/10 16:50:07;;;;;;;45.17;17.95;;;;;;;0.91;74.40;99334.03;30721414;28;97509;-62
2022/12/10 17:05:15;;;;;;;45.80;18.73;;;;;;;0.93;74.55;99336.53;30719699;28;96800;-63
2022/12/10 17:20:17;;;;;;;41.85;19.48;;;;;;;1.03;74.47;99339.25;30719612;28;96749;-63
2022/12/10 17:35:19;;;;;;;42.97;18.98;;;;;;;0.92;74.34;99363.75;30717791;28;97293;-63
2022/12/10 17:50:29;;;;;;;51.70;20.15;;;;;;;0.95;74.54;99377.41;30655615;28;97084;-63
2022/12/10 18:05:30;;;;;;;40.08;19.35;;;;;;;0.92;74.57;99382.91;30623173;28;96583;-63
2022/12/10 18:20:35;;;;;;;41.58;17.65;;;;;;;0.80;74.40;99378.69;30617139;28;96982;-63
2022/12/10 18:35:35;;;;;;;37.93;16.87;;;;;;;0.86;74.27;99359.81;30613072;28;96938;-64
2022/12/10 18:50:35;;;;;;;37.88;17.42;;;;;;;0.88;74.57;99350.03;30620944;28;97438;-63
2022/12/10 19:05:36;;;;;;;39.08;17.83;;;;;;;0.91;74.24;99349.78;30617902;28;97297;-64
2022/12/10 19:20:36;;;;;;;37.30;18.10;;;;;;;0.85;74.15;99352.94;30618080;28;96751;-64
2022/12/10 19:35:37;;;;;;;36.03;17.48;;;;;;;0.74;74.33;99347.72;30616712;28;96585;-64
2022/12/10 19:50:38;;;;;;;32.10;16.55;;;;;;;0.69;74.24;99370.91;30615239;28;96741;-64
2022/12/10 20:05:38;;;;;;;39.47;16.63;;;;;;;0.60;74.13;99375.09;30613554;28;96818;-64
2022/12/10 20:20:38;;;;;;;39.13;16.27;;;;;;;0.66;74.18;99353.63;30611624;28;96812;-64
2022/12/10 20:35:39;;;;;;;39.17;19.70;;;;;;;0.69;74.20;99337.63;30610629;28;96782;-63
2022/12/10 20:50:39;;;;;;;39.40;17.25;;;;;;;0.66;74.28;99336.09;30610475;28;96614;-64
2022/12/10 21:05:40;;;;;;;36.88;17.05;;;;;;;0.63;74.04;99340.75;30608310;28;96747;-64
2022/12/10 21:20:40;;;;;;;36.25;17.10;;;;;;;0.65;74.34;99352.78;30612106;28;96920;-63
2022/12/10 21:35:40;;;;;;;30.50;15.13;;;;;;;0.62;74.09;99371.41;30627003;28;97135;-65
2022/12/10 21:50:42;;;;;;;36.00;16.23;;;;;;;0.63;74.12;99359.97;30626046;28;96648;-65
2022/12/10 22:05:42;;;;;;;32.42;15.55;;;;;;;0.50;73.96;99356.69;30625908;28;96697;-64
2022/12/10 22:20:42;;;;;;;36.85;17.80;;;;;;;0.50;73.97;99356.69;30624996;28;96597;-64
2022/12/10 22:35:43;;;;;;;38.33;17.75;;;;;;;0.53;74.21;99361.66;30622246;28;96795;-65
2022/12/10 22:50:43;;;;;;;35.33;19.17;;;;;;;0.55;74.08;99351.91;30622916;28;96588;-65
2022/12/10 23:05:46;;;;;;;36.40;18.15;;;;;;;0.50;73.92;99318.19;30621415;28;97276;-65
2022/12/10 23:20:47;;;;;;;40.38;18.40;;;;;;;0.40;74.15;99317.31;30618114;28;97364;-65
2022/12/10 23:35:47;;;;;;;43.88;20.40;;;;;;;0.30;74.34;99322.47;30611620;28;97487;-65
2022/12/10 23:50:48;;;;;;;37.53;17.95;;;;;;;0.25;73.96;99316.78;30678416;28;96776;-64
